Vermoegen Hamburg — DNLO — position and weather

sailwx.info

Track history (hours):
 
Tides and Currents Weather Stations Pressure Air Temp Water Temp Dewpoint Dewpoint Depression Visibility Wind Speed Wind Dir Waves Ship Positions

Vermoegen Hamburg

Last reported at 2018-Feb-18 23:58 UTC. Time now 2018-Feb-19 00:04 UTC.
Position N 17°01' W 061°46'.

Length 16 m.

Type: Sailing vessel. MMSI: 211140670.

Date/timePositionNaut miles runAvg speedWind from/ knotsBaromVisibWave heightAir tempDewpointWater temp
2018-Feb-18 23:58N 17°01' W 061°46'0 0.0
2018-Feb-18 23:28N 17°01' W 061°46'0 0.0
2018-Feb-18 22:58N 17°01' W 061°46'0 0.0
2018-Feb-18 22:28N 17°01' W 061°46'0 0.0
2018-Feb-18 21:58N 17°01' W 061°46'0 0.0
2018-Feb-18 21:28N 17°01' W 061°46'0 0.0
2018-Feb-18 20:58N 17°01' W 061°46'0 0.0
2018-Feb-18 20:28N 17°01' W 061°46'0 0.0
2018-Feb-18 19:58N 17°01' W 061°46'0 0.0
2018-Feb-18 19:28N 17°01' W 061°46'0 0.0
2018-Feb-18 18:58N 17°01' W 061°46'0 0.0
2018-Feb-18 18:28N 17°01' W 061°46'0 0.0
2018-Feb-18 17:58N 17°01' W 061°46'0 0.0
2018-Feb-18 17:28N 17°01' W 061°46'0 0.0
2018-Feb-18 17:00N 17°01' W 061°46'0 0.8
2018-Feb-18 16:29N 17°01' W 061°47'3 6.0
2018-Feb-18 16:00N 16°58' W 061°47'4 8.4
2018-Feb-18 15:30N 16°54' W 061°48'2 4.5
2018-Feb-18 15:00N 16°56' W 061°46'4 7.3
2018-Feb-18 14:30N 16°59' W 061°45'2 4.4
2018-Feb-18 14:00N 17°01' W 061°47'0 0.6
2018-Feb-18 13:28N 17°01' W 061°46'0 0.0
2018-Feb-18 12:58N 17°01' W 061°46'0 0.0
2018-Feb-16 23:02N 17°01' W 061°46'0 0.0
2018-Feb-16 22:52N 17°01' W 061°46'0 0.0
2018-Feb-16 22:28N 17°01' W 061°46'0 0.0
2018-Feb-16 21:59N 17°01' W 061°46'0 0.0
2018-Feb-16 21:25N 17°01' W 061°46'0 0.0
2018-Feb-16 20:58N 17°01' W 061°46'0 0.0
2018-Feb-15 14:47N 17°01' W 061°46'0 0.0
2018-Feb-15 14:29N 17°01' W 061°46'0 0.0
2018-Feb-15 13:59N 17°01' W 061°46'0 0.0
2018-Feb-15 13:29N 17°01' W 061°46'0 0.1
2018-Feb-15 13:00N 17°01' W 061°46'1 1.5
2018-Feb-15 12:29N 17°00' W 061°47'2 4.5
2018-Feb-15 11:56N 16°59' W 061°49'3 7.0
2018-Feb-15 11:30N 16°56' W 061°50'3 6.6
2018-Feb-15 11:00N 16°57' W 061°52'4 8.0
2018-Feb-15 10:30N 16°54' W 061°54'4 7.3
2018-Feb-15 10:01N 16°50' W 061°55'4 7.7
2018-Feb-15 09:30N 16°46' W 061°55'4 7.6
2018-Feb-15 09:00N 16°42' W 061°56'4 7.7
2018-Feb-15 08:30N 16°39' W 061°57'4 7.9
2018-Feb-15 08:00N 16°35' W 061°57'4 7.5
2018-Feb-15 07:27N 16°31' W 061°57'4 7.8
2018-Feb-15 06:58N 16°27' W 061°56'131 8.4
2018-Feb-14 15:28N 14°27' W 061°01'4 8.9
2018-Feb-14 14:59N 14°27' W 060°57'3 5.3
2018-Feb-14 14:30N 14°27' W 060°54'2 4.8
2018-Feb-14 14:00N 14°28' W 060°52'0 0.4
2018-Feb-14 13:27N 14°28' W 060°52'0 0.0
2018-Feb-14 13:00N 14°28' W 060°52'0 0.0
2018-Feb-14 12:18N 14°28' W 060°52'0 0.0
2018-Feb-14 12:00N 14°28' W 060°52'0 0.0
2018-Feb-14 11:30N 14°28' W 060°52'0 0.0
2018-Feb-14 11:00N 14°28' W 060°52'0 0.0
2018-Feb-14 10:30N 14°28' W 060°52'0 0.0
2018-Feb-14 10:00N 14°28' W 060°52'0 0.0
2018-Feb-14 09:30N 14°28' W 060°52'0 0.0
2018-Feb-14 09:00N 14°28' W 060°52'0 0.0
2018-Feb-14 08:30N 14°28' W 060°52'0 0.0
2018-Feb-14 08:00N 14°28' W 060°52'0 0.0
2018-Feb-14 07:30N 14°28' W 060°52'0 0.0
2018-Feb-14 06:18N 14°28' W 060°52'0 0.0
2018-Feb-14 06:00N 14°28' W 060°52'0 0.0
2018-Feb-14 05:30N 14°28' W 060°52'0 0.0
2018-Feb-14 05:00N 14°28' W 060°52'0 0.0
2018-Feb-14 04:30N 14°28' W 060°52'0 0.0
2018-Feb-14 04:00N 14°28' W 060°52'0 0.0
2018-Feb-14 03:30N 14°28' W 060°52'0 0.0
2018-Feb-14 03:00N 14°28' W 060°52'0 0.0
2018-Feb-14 02:30N 14°28' W 060°52'0 0.0
2018-Feb-14 02:00N 14°28' W 060°52'0 0.0
2018-Feb-14 01:30N 14°28' W 060°52'0 0.0
2018-Feb-14 01:00N 14°28' W 060°52'0 0.0
2018-Feb-14 00:30N 14°28' W 060°52'0 0.0
2018-Feb-14 00:00N 14°28' W 060°52'0 0.0
2018-Feb-13 23:30N 14°28' W 060°52'0 0.0
2018-Feb-13 23:00N 14°28' W 060°52'0 0.0
2018-Feb-13 22:30N 14°28' W 060°52'0 0.0
2018-Feb-13 22:00N 14°28' W 060°52'0 0.0
2018-Feb-13 21:30N 14°28' W 060°52'0 0.0
2018-Feb-13 21:00N 14°28' W 060°52'0 0.0
2018-Feb-13 20:30N 14°28' W 060°52'0 0.0
2018-Feb-13 20:00N 14°28' W 060°52'0 0.0
2018-Feb-13 19:30N 14°28' W 060°52'0 0.0
2018-Feb-13 19:00N 14°28' W 060°52'0 0.0
2018-Feb-13 18:30N 14°28' W 060°52'0 0.0
2018-Feb-13 17:58N 14°28' W 060°52'0 0.0
2018-Feb-13 17:27N 14°28' W 060°52'0 0.0
2018-Feb-13 17:00N 14°28' W 060°52'0 0.0
2018-Feb-13 16:30N 14°28' W 060°52'0 0.0
2018-Feb-13 16:00N 14°28' W 060°52'0 0.0
2018-Feb-13 15:30N 14°28' W 060°52'0 0.0
2018-Feb-13 15:00N 14°28' W 060°52'0 0.0
2018-Feb-13 14:27N 14°28' W 060°52'0 0.0
2018-Feb-13 14:00N 14°28' W 060°52'0 0.0
2018-Feb-13 13:21N 14°28' W 060°52'0 0.0
2018-Feb-13 13:00N 14°28' W 060°52'0 0.0
2018-Feb-13 12:28N 14°28' W 060°52'0 0.0
2018-Feb-13 11:58N 14°28' W 060°52'0 0.0
2018-Feb-13 11:28N 14°28' W 060°52'0 0.0
2018-Feb-13 10:58N 14°28' W 060°52'0 0.0
2018-Feb-13 10:28N 14°28' W 060°52'0 0.0
2018-Feb-13 09:58N 14°28' W 060°52'0 0.0
2018-Feb-13 09:28N 14°28' W 060°52'0 0.0
2018-Feb-13 08:58N 14°28' W 060°52'0 0.0
2018-Feb-13 08:28N 14°28' W 060°52'0 0.0
2018-Feb-13 07:58N 14°28' W 060°52'0 0.0
2018-Feb-13 07:28N 14°28' W 060°52'0 0.0
2018-Feb-13 06:16N 14°28' W 060°52'0 0.0
2018-Feb-13 05:58N 14°28' W 060°52'0 0.0
2018-Feb-13 05:28N 14°28' W 060°52'0 0.0
2018-Feb-13 04:58N 14°28' W 060°52'0 0.0
2018-Feb-13 04:28N 14°28' W 060°52'0 0.0
2018-Feb-13 03:58N 14°28' W 060°52'0 0.0
2018-Feb-13 03:28N 14°28' W 060°52'0 0.0
2018-Feb-13 02:58N 14°28' W 060°52'0 0.0
2018-Feb-13 02:28N 14°28' W 060°52'0 0.0
2018-Feb-13 01:58N 14°28' W 060°52'0 0.0
2018-Feb-13 01:28N 14°28' W 060°52'0 0.0
2018-Feb-13 00:58N 14°28' W 060°52'0 0.0
2018-Feb-13 00:28N 14°28' W 060°52'0 0.0
2018-Feb-12 23:58N 14°28' W 060°52'0 0.0
2018-Feb-12 23:28N 14°28' W 060°52'0 0.0
2018-Feb-12 22:58N 14°28' W 060°52'0 0.0
2018-Feb-12 22:28N 14°28' W 060°52'0 0.0
2018-Feb-12 21:57N 14°28' W 060°52'0 0.0
2018-Feb-12 21:30N 14°28' W 060°52'0 0.0
2018-Feb-12 21:00N 14°28' W 060°52'0 0.0
2018-Feb-12 20:30N 14°28' W 060°52'0 0.0
2018-Feb-12 20:00N 14°28' W 060°52'0 0.0
2018-Feb-12 19:30N 14°28' W 060°52'0 0.0
2018-Feb-12 19:00N 14°28' W 060°52'0 0.0
2018-Feb-12 18:30N 14°28' W 060°52'0 0.0
2018-Feb-12 18:00N 14°28' W 060°52'0 0.0
2018-Feb-12 17:30N 14°28' W 060°52'0 0.0
2018-Feb-12 16:57N 14°28' W 060°52'0 0.0
2018-Feb-12 16:30N 14°28' W 060°52'0 0.0
2018-Feb-12 16:00N 14°28' W 060°52'0 0.0
2018-Feb-12 15:18N 14°28' W 060°52'0 0.0
2018-Feb-12 15:00N 14°28' W 060°52'0 0.0
2018-Feb-12 14:27N 14°28' W 060°52'0 0.0
2018-Feb-12 13:57N 14°28' W 060°52'0 0.0
2018-Feb-12 13:30N 14°28' W 060°52'0 0.0
2018-Feb-12 13:00N 14°28' W 060°52'0 0.0
2018-Feb-12 12:30N 14°28' W 060°52'0 0.0
2018-Feb-12 12:00N 14°28' W 060°52'0 0.0
2018-Feb-12 11:30N 14°28' W 060°52'0 0.0
2018-Feb-12 09:09N 14°28' W 060°52'0 0.0
2018-Feb-12 09:00N 14°28' W 060°52'0 0.0
2018-Feb-12 08:30N 14°28' W 060°52'0 0.0
2018-Feb-12 08:00N 14°28' W 060°52'0 0.0
2018-Feb-12 07:30N 14°28' W 060°52'0 0.0
2018-Feb-12 07:00N 14°28' W 060°52'0 0.0
2018-Feb-12 06:30N 14°28' W 060°52'0 0.0
2018-Feb-12 06:00N 14°28' W 060°52'0 0.0
2018-Feb-12 05:30N 14°28' W 060°52'0 0.0
2018-Feb-12 05:00N 14°28' W 060°52'0 0.0
2018-Feb-12 04:30N 14°28' W 060°52'0 0.0
2018-Feb-12 04:00N 14°28' W 060°52'0 0.0
2018-Feb-12 03:30N 14°28' W 060°52'0 0.0
2018-Feb-12 03:00N 14°28' W 060°52'0 0.0
2018-Feb-12 02:30N 14°28' W 060°52'0 0.0
2018-Feb-12 02:00N 14°28' W 060°52'0 0.0
2018-Feb-12 01:30N 14°28' W 060°52'0 0.0
2018-Feb-12 01:00N 14°28' W 060°52'0 0.0
2018-Feb-12 00:30N 14°28' W 060°52'0 0.0
2018-Feb-12 00:00N 14°28' W 060°52'0 0.0
2018-Feb-11 23:30N 14°28' W 060°52'0 0.0
2018-Feb-11 23:00N 14°28' W 060°52'0 0.0
2018-Feb-11 22:30N 14°28' W 060°52'0 0.0
2018-Feb-11 22:00N 14°28' W 060°52'0 0.0
2018-Feb-11 21:30N 14°28' W 060°52'0 0.0
2018-Feb-11 20:57N 14°28' W 060°52'0 0.0
2018-Feb-11 20:30N 14°28' W 060°52'0 0.0
2018-Feb-11 20:00N 14°28' W 060°52'0 0.0
2018-Feb-11 19:30N 14°28' W 060°52'0 0.0
2018-Feb-11 19:00N 14°28' W 060°52'0 0.0
2018-Feb-11 18:24N 14°28' W 060°52'0 0.0
2018-Feb-11 18:00N 14°28' W 060°52'0 0.0
2018-Feb-11 17:30N 14°28' W 060°52'0 0.0
2018-Feb-11 17:00N 14°28' W 060°52'0 0.0
2018-Feb-11 16:30N 14°28' W 060°52'0 0.0
2018-Feb-11 16:00N 14°28' W 060°52'0 0.0
2018-Feb-11 15:30N 14°28' W 060°52'0 0.0
2018-Feb-11 15:00N 14°28' W 060°52'0 0.0
2018-Feb-11 14:30N 14°28' W 060°52'0 0.0
2018-Feb-11 14:00N 14°28' W 060°52'0 0.0
2018-Feb-11 13:30N 14°28' W 060°52'0 0.6
2018-Feb-11 12:59N 14°28' W 060°52'0 0.0
2018-Feb-11 12:30N 14°28' W 060°52'0 0.0
2018-Feb-11 11:42N 14°28' W 060°52'0 0.0
2018-Feb-11 11:19N 14°28' W 060°52'0 0.0
2018-Feb-11 10:55N 14°28' W 060°52'0 0.0
2018-Feb-11 10:25N 14°28' W 060°52'0 0.0
2018-Feb-11 09:59N 14°28' W 060°52'0 0.0
2018-Feb-11 09:29N 14°28' W 060°52'0 0.0
2018-Feb-11 08:59N 14°28' W 060°52'0 0.0
2018-Feb-11 08:29N 14°28' W 060°52'0 0.0
2018-Feb-11 07:59N 14°28' W 060°52'0 0.0
2018-Feb-11 07:29N 14°28' W 060°52'0 0.0
2018-Feb-11 06:59N 14°28' W 060°52'0 0.0
2018-Feb-11 06:29N 14°28' W 060°52'0 0.0
2018-Feb-11 05:59N 14°28' W 060°52'0 0.0
2018-Feb-11 05:29N 14°28' W 060°52'0 0.0
2018-Feb-11 04:59N 14°28' W 060°52'0 0.0
2018-Feb-11 04:29N 14°28' W 060°52'0 0.0
2018-Feb-11 03:59N 14°28' W 060°52'0 0.0
2018-Feb-11 03:29N 14°28' W 060°52'0 0.0
2018-Feb-11 02:59N 14°28' W 060°52'0 0.0
2018-Feb-11 02:29N 14°28' W 060°52'0 0.0
2018-Feb-11 01:59N 14°28' W 060°52'0 0.0
2018-Feb-11 01:29N 14°28' W 060°52'0 0.0
2018-Feb-11 00:59N 14°28' W 060°52'0 0.0
2018-Feb-11 00:29N 14°28' W 060°52'0 0.0
2018-Feb-10 23:59N 14°28' W 060°52'0 0.0
2018-Feb-10 23:17N 14°28' W 060°52'0 0.0
2018-Feb-10 22:56N 14°28' W 060°52'0 0.0
2018-Feb-10 22:26N 14°28' W 060°52'0 0.0
2018-Feb-10 21:59N 14°28' W 060°52'0 0.0
2018-Feb-10 21:29N 14°28' W 060°52'0 0.0
2018-Feb-10 20:56N 14°28' W 060°52'0 0.0
2018-Feb-10 20:18N 14°28' W 060°52'0 0.0
2018-Feb-10 19:54N 14°28' W 060°52'0 0.3
2018-Feb-10 19:27N 14°28' W 060°52'2 3.7
2018-Feb-10 18:48N 14°26' W 060°54'4 5.7
2018-Feb-10 18:10N 14°23' W 060°57'  
Track history (hours):
 
Tides and Currents Weather Stations Pressure Air Temp Water Temp Dewpoint Dewpoint Depression Visibility Wind Speed Wind Dir Waves Ship Positions

Vermoegen Hamburg

Last reported at 2018-Feb-18 23:58 UTC. Time now 2018-Feb-19 00:04 UTC.
Position N 17°01' W 061°46'.

Length 16 m.

Type: Sailing vessel. MMSI: 211140670.

Date/timePositionNaut miles runAvg speedWind from/ knotsBaromVisibWave heightAir tempDewpointWater temp
2018-Feb-18 23:58N 17°01' W 061°46'0 0.0
2018-Feb-18 23:28N 17°01' W 061°46'0 0.0
2018-Feb-18 22:58N 17°01' W 061°46'0 0.0
2018-Feb-18 22:28N 17°01' W 061°46'0 0.0
2018-Feb-18 21:58N 17°01' W 061°46'0 0.0
2018-Feb-18 21:28N 17°01' W 061°46'0 0.0
2018-Feb-18 20:58N 17°01' W 061°46'0 0.0
2018-Feb-18 20:28N 17°01' W 061°46'0 0.0
2018-Feb-18 19:58N 17°01' W 061°46'0 0.0
2018-Feb-18 19:28N 17°01' W 061°46'0 0.0
2018-Feb-18 18:58N 17°01' W 061°46'0 0.0
2018-Feb-18 18:28N 17°01' W 061°46'0 0.0
2018-Feb-18 17:58N 17°01' W 061°46'0 0.0
2018-Feb-18 17:28N 17°01' W 061°46'0 0.0
2018-Feb-18 17:00N 17°01' W 061°46'0 0.8
2018-Feb-18 16:29N 17°01' W 061°47'3 6.0
2018-Feb-18 16:00N 16°58' W 061°47'4 8.4
2018-Feb-18 15:30N 16°54' W 061°48'2 4.5
2018-Feb-18 15:00N 16°56' W 061°46'4 7.3
2018-Feb-18 14:30N 16°59' W 061°45'2 4.4
2018-Feb-18 14:00N 17°01' W 061°47'0 0.6
2018-Feb-18 13:28N 17°01' W 061°46'0 0.0
2018-Feb-18 12:58N 17°01' W 061°46'0 0.0
2018-Feb-16 23:02N 17°01' W 061°46'0 0.0
2018-Feb-16 22:52N 17°01' W 061°46'0 0.0
2018-Feb-16 22:28N 17°01' W 061°46'0 0.0
2018-Feb-16 21:59N 17°01' W 061°46'0 0.0
2018-Feb-16 21:25N 17°01' W 061°46'0 0.0
2018-Feb-16 20:58N 17°01' W 061°46'0 0.0
2018-Feb-15 14:47N 17°01' W 061°46'0 0.0
2018-Feb-15 14:29N 17°01' W 061°46'0 0.0
2018-Feb-15 13:59N 17°01' W 061°46'0 0.0
2018-Feb-15 13:29N 17°01' W 061°46'0 0.1
2018-Feb-15 13:00N 17°01' W 061°46'1 1.5
2018-Feb-15 12:29N 17°00' W 061°47'2 4.5
2018-Feb-15 11:56N 16°59' W 061°49'3 7.0
2018-Feb-15 11:30N 16°56' W 061°50'3 6.6
2018-Feb-15 11:00N 16°57' W 061°52'4 8.0
2018-Feb-15 10:30N 16°54' W 061°54'4 7.3
2018-Feb-15 10:01N 16°50' W 061°55'4 7.7
2018-Feb-15 09:30N 16°46' W 061°55'4 7.6
2018-Feb-15 09:00N 16°42' W 061°56'4 7.7
2018-Feb-15 08:30N 16°39' W 061°57'4 7.9
2018-Feb-15 08:00N 16°35' W 061°57'4 7.5
2018-Feb-15 07:27N 16°31' W 061°57'4 7.8
2018-Feb-15 06:58N 16°27' W 061°56'131 8.4
2018-Feb-14 15:28N 14°27' W 061°01'4 8.9
2018-Feb-14 14:59N 14°27' W 060°57'3 5.3
2018-Feb-14 14:30N 14°27' W 060°54'2 4.8
2018-Feb-14 14:00N 14°28' W 060°52'0 0.4
2018-Feb-14 13:27N 14°28' W 060°52'0 0.0
2018-Feb-14 13:00N 14°28' W 060°52'0 0.0
2018-Feb-14 12:18N 14°28' W 060°52'0 0.0
2018-Feb-14 12:00N 14°28' W 060°52'0 0.0
2018-Feb-14 11:30N 14°28' W 060°52'0 0.0
2018-Feb-14 11:00N 14°28' W 060°52'0 0.0
2018-Feb-14 10:30N 14°28' W 060°52'0 0.0
2018-Feb-14 10:00N 14°28' W 060°52'0 0.0
2018-Feb-14 09:30N 14°28' W 060°52'0 0.0
2018-Feb-14 09:00N 14°28' W 060°52'0 0.0
2018-Feb-14 08:30N 14°28' W 060°52'0 0.0
2018-Feb-14 08:00N 14°28' W 060°52'0 0.0
2018-Feb-14 07:30N 14°28' W 060°52'0 0.0
2018-Feb-14 06:18N 14°28' W 060°52'0 0.0
2018-Feb-14 06:00N 14°28' W 060°52'0 0.0
2018-Feb-14 05:30N 14°28' W 060°52'0 0.0
2018-Feb-14 05:00N 14°28' W 060°52'0 0.0
2018-Feb-14 04:30N 14°28' W 060°52'0 0.0
2018-Feb-14 04:00N 14°28' W 060°52'0 0.0
2018-Feb-14 03:30N 14°28' W 060°52'0 0.0
2018-Feb-14 03:00N 14°28' W 060°52'0 0.0
2018-Feb-14 02:30N 14°28' W 060°52'0 0.0
2018-Feb-14 02:00N 14°28' W 060°52'0 0.0
2018-Feb-14 01:30N 14°28' W 060°52'0 0.0
2018-Feb-14 01:00N 14°28' W 060°52'0 0.0
2018-Feb-14 00:30N 14°28' W 060°52'0 0.0
2018-Feb-14 00:00N 14°28' W 060°52'0 0.0
2018-Feb-13 23:30N 14°28' W 060°52'0 0.0
2018-Feb-13 23:00N 14°28' W 060°52'0 0.0
2018-Feb-13 22:30N 14°28' W 060°52'0 0.0
2018-Feb-13 22:00N 14°28' W 060°52'0 0.0
2018-Feb-13 21:30N 14°28' W 060°52'0 0.0
2018-Feb-13 21:00N 14°28' W 060°52'0 0.0
2018-Feb-13 20:30N 14°28' W 060°52'0 0.0
2018-Feb-13 20:00N 14°28' W 060°52'0 0.0
2018-Feb-13 19:30N 14°28' W 060°52'0 0.0
2018-Feb-13 19:00N 14°28' W 060°52'0 0.0
2018-Feb-13 18:30N 14°28' W 060°52'0 0.0
2018-Feb-13 17:58N 14°28' W 060°52'0 0.0
2018-Feb-13 17:27N 14°28' W 060°52'0 0.0
2018-Feb-13 17:00N 14°28' W 060°52'0 0.0
2018-Feb-13 16:30N 14°28' W 060°52'0 0.0
2018-Feb-13 16:00N 14°28' W 060°52'0 0.0
2018-Feb-13 15:30N 14°28' W 060°52'0 0.0
2018-Feb-13 15:00N 14°28' W 060°52'0 0.0
2018-Feb-13 14:27N 14°28' W 060°52'0 0.0
2018-Feb-13 14:00N 14°28' W 060°52'0 0.0
2018-Feb-13 13:21N 14°28' W 060°52'0 0.0
2018-Feb-13 13:00N 14°28' W 060°52'0 0.0
2018-Feb-13 12:28N 14°28' W 060°52'0 0.0
2018-Feb-13 11:58N 14°28' W 060°52'0 0.0
2018-Feb-13 11:28N 14°28' W 060°52'0 0.0
2018-Feb-13 10:58N 14°28' W 060°52'0 0.0
2018-Feb-13 10:28N 14°28' W 060°52'0 0.0
2018-Feb-13 09:58N 14°28' W 060°52'0 0.0
2018-Feb-13 09:28N 14°28' W 060°52'0 0.0
2018-Feb-13 08:58N 14°28' W 060°52'0 0.0
2018-Feb-13 08:28N 14°28' W 060°52'0 0.0
2018-Feb-13 07:58N 14°28' W 060°52'0 0.0
2018-Feb-13 07:28N 14°28' W 060°52'0 0.0
2018-Feb-13 06:16N 14°28' W 060°52'0 0.0
2018-Feb-13 05:58N 14°28' W 060°52'0 0.0
2018-Feb-13 05:28N 14°28' W 060°52'0 0.0
2018-Feb-13 04:58N 14°28' W 060°52'0 0.0
2018-Feb-13 04:28N 14°28' W 060°52'0 0.0
2018-Feb-13 03:58N 14°28' W 060°52'0 0.0
2018-Feb-13 03:28N 14°28' W 060°52'0 0.0
2018-Feb-13 02:58N 14°28' W 060°52'0 0.0
2018-Feb-13 02:28N 14°28' W 060°52'0 0.0
2018-Feb-13 01:58N 14°28' W 060°52'0 0.0
2018-Feb-13 01:28N 14°28' W 060°52'0 0.0
2018-Feb-13 00:58N 14°28' W 060°52'0 0.0
2018-Feb-13 00:28N 14°28' W 060°52'0 0.0
2018-Feb-12 23:58N 14°28' W 060°52'0 0.0
2018-Feb-12 23:28N 14°28' W 060°52'0 0.0
2018-Feb-12 22:58N 14°28' W 060°52'0 0.0
2018-Feb-12 22:28N 14°28' W 060°52'0 0.0
2018-Feb-12 21:57N 14°28' W 060°52'0 0.0
2018-Feb-12 21:30N 14°28' W 060°52'0 0.0
2018-Feb-12 21:00N 14°28' W 060°52'0 0.0
2018-Feb-12 20:30N 14°28' W 060°52'0 0.0
2018-Feb-12 20:00N 14°28' W 060°52'0 0.0
2018-Feb-12 19:30N 14°28' W 060°52'0 0.0
2018-Feb-12 19:00N 14°28' W 060°52'0 0.0
2018-Feb-12 18:30N 14°28' W 060°52'0 0.0
2018-Feb-12 18:00N 14°28' W 060°52'0 0.0
2018-Feb-12 17:30N 14°28' W 060°52'0 0.0
2018-Feb-12 16:57N 14°28' W 060°52'0 0.0
2018-Feb-12 16:30N 14°28' W 060°52'0 0.0
2018-Feb-12 16:00N 14°28' W 060°52'0 0.0
2018-Feb-12 15:18N 14°28' W 060°52'0 0.0
2018-Feb-12 15:00N 14°28' W 060°52'0 0.0
2018-Feb-12 14:27N 14°28' W 060°52'0 0.0
2018-Feb-12 13:57N 14°28' W 060°52'0 0.0
2018-Feb-12 13:30N 14°28' W 060°52'0 0.0
2018-Feb-12 13:00N 14°28' W 060°52'0 0.0
2018-Feb-12 12:30N 14°28' W 060°52'0 0.0
2018-Feb-12 12:00N 14°28' W 060°52'0 0.0
2018-Feb-12 11:30N 14°28' W 060°52'0 0.0
2018-Feb-12 09:09N 14°28' W 060°52'0 0.0
2018-Feb-12 09:00N 14°28' W 060°52'0 0.0
2018-Feb-12 08:30N 14°28' W 060°52'0 0.0
2018-Feb-12 08:00N 14°28' W 060°52'0 0.0
2018-Feb-12 07:30N 14°28' W 060°52'0 0.0
2018-Feb-12 07:00N 14°28' W 060°52'0 0.0
2018-Feb-12 06:30N 14°28' W 060°52'0 0.0
2018-Feb-12 06:00N 14°28' W 060°52'0 0.0
2018-Feb-12 05:30N 14°28' W 060°52'0 0.0
2018-Feb-12 05:00N 14°28' W 060°52'0 0.0
2018-Feb-12 04:30N 14°28' W 060°52'0 0.0
2018-Feb-12 04:00N 14°28' W 060°52'0 0.0
2018-Feb-12 03:30N 14°28' W 060°52'0 0.0
2018-Feb-12 03:00N 14°28' W 060°52'0 0.0
2018-Feb-12 02:30N 14°28' W 060°52'0 0.0
2018-Feb-12 02:00N 14°28' W 060°52'0 0.0
2018-Feb-12 01:30N 14°28' W 060°52'0 0.0
2018-Feb-12 01:00N 14°28' W 060°52'0 0.0
2018-Feb-12 00:30N 14°28' W 060°52'0 0.0
2018-Feb-12 00:00N 14°28' W 060°52'0 0.0
2018-Feb-11 23:30N 14°28' W 060°52'0 0.0
2018-Feb-11 23:00N 14°28' W 060°52'0 0.0
2018-Feb-11 22:30N 14°28' W 060°52'0 0.0
2018-Feb-11 22:00N 14°28' W 060°52'0 0.0
2018-Feb-11 21:30N 14°28' W 060°52'0 0.0
2018-Feb-11 20:57N 14°28' W 060°52'0 0.0
2018-Feb-11 20:30N 14°28' W 060°52'0 0.0
2018-Feb-11 20:00N 14°28' W 060°52'0 0.0
2018-Feb-11 19:30N 14°28' W 060°52'0 0.0
2018-Feb-11 19:00N 14°28' W 060°52'0 0.0
2018-Feb-11 18:24N 14°28' W 060°52'0 0.0
2018-Feb-11 18:00N 14°28' W 060°52'0 0.0
2018-Feb-11 17:30N 14°28' W 060°52'0 0.0
2018-Feb-11 17:00N 14°28' W 060°52'0 0.0
2018-Feb-11 16:30N 14°28' W 060°52'0 0.0
2018-Feb-11 16:00N 14°28' W 060°52'0 0.0
2018-Feb-11 15:30N 14°28' W 060°52'0 0.0
2018-Feb-11 15:00N 14°28' W 060°52'0 0.0
2018-Feb-11 14:30N 14°28' W 060°52'0 0.0
2018-Feb-11 14:00N 14°28' W 060°52'0 0.0
2018-Feb-11 13:30N 14°28' W 060°52'0 0.6
2018-Feb-11 12:59N 14°28' W 060°52'0 0.0
2018-Feb-11 12:30N 14°28' W 060°52'0 0.0
2018-Feb-11 11:42N 14°28' W 060°52'0 0.0
2018-Feb-11 11:19N 14°28' W 060°52'0 0.0
2018-Feb-11 10:55N 14°28' W 060°52'0 0.0
2018-Feb-11 10:25N 14°28' W 060°52'0 0.0
2018-Feb-11 09:59N 14°28' W 060°52'0 0.0
2018-Feb-11 09:29N 14°28' W 060°52'0 0.0
2018-Feb-11 08:59N 14°28' W 060°52'0 0.0
2018-Feb-11 08:29N 14°28' W 060°52'0 0.0
2018-Feb-11 07:59N 14°28' W 060°52'0 0.0
2018-Feb-11 07:29N 14°28' W 060°52'0 0.0
2018-Feb-11 06:59N 14°28' W 060°52'0 0.0
2018-Feb-11 06:29N 14°28' W 060°52'0 0.0
2018-Feb-11 05:59N 14°28' W 060°52'0 0.0
2018-Feb-11 05:29N 14°28' W 060°52'0 0.0
2018-Feb-11 04:59N 14°28' W 060°52'0 0.0
2018-Feb-11 04:29N 14°28' W 060°52'0 0.0
2018-Feb-11 03:59N 14°28' W 060°52'0 0.0
2018-Feb-11 03:29N 14°28' W 060°52'0 0.0
2018-Feb-11 02:59N 14°28' W 060°52'0 0.0
2018-Feb-11 02:29N 14°28' W 060°52'0 0.0
2018-Feb-11 01:59N 14°28' W 060°52'0 0.0
2018-Feb-11 01:29N 14°28' W 060°52'0 0.0
2018-Feb-11 00:59N 14°28' W 060°52'0 0.0
2018-Feb-11 00:29N 14°28' W 060°52'0 0.0
2018-Feb-10 23:59N 14°28' W 060°52'0 0.0
2018-Feb-10 23:17N 14°28' W 060°52'0 0.0
2018-Feb-10 22:56N 14°28' W 060°52'0 0.0
2018-Feb-10 22:26N 14°28' W 060°52'0 0.0
2018-Feb-10 21:59N 14°28' W 060°52'0 0.0
2018-Feb-10 21:29N 14°28' W 060°52'0 0.0
2018-Feb-10 20:56N 14°28' W 060°52'0 0.0
2018-Feb-10 20:18N 14°28' W 060°52'0 0.0
2018-Feb-10 19:54N 14°28' W 060°52'0 0.3
2018-Feb-10 19:27N 14°28' W 060°52'2 3.7
2018-Feb-10 18:48N 14°26' W 060°54'4 5.7
2018-Feb-10 18:10N 14°23' W 060°57'  

Dump ship's entire track history